Byesville, OH (43723)

8:02 PM EST on March 04, 2015 (GMT -0500)
Downtown Cambridge | Change Station
CLOSE
Current Station
Personal Weather Station
Location: Cambridge, OH
Elevation: 876 ft
Nearby Weather Stations
Active Advisory: Winter Weather Advisory

Elev 876 ft 40.03 °N, 81.59 °W | Updated 9 seconds ago

Rain
Rain
32.0 °F
Feels Like 27 °F
N
5.0
Wind Variable Wind from WNW
Gusts 9.0 mph

Today
High -- | Low -- °F
--% Chance of Precip.
Yesterday
High -- | Low -- °F
Precip. -- in
6:55 AM 6:21 PM
Full, 100% visible
Pressure 30.07 in
Visibility 1.0 miles
Clouds Mostly Cloudy 900 ft
Overcast 1600 ft
Windchill 27 °F
Dew Point 21 °F
Humidity 62%
Rainfall 0.54 in
Snow Depth Not available.
UV 0 out of 12
Pollen .50 out of 12
Air Quality Not available.
Flu Activity Not available.
METAR KZZV 050053Z AUTO 35006KT 1SM -SN BR BKN009 OVC016 M01/M03 A3004 RMK AO2 SLP182 P0002 T10111028 TSNO

More Conditions Fewer Conditions

Pressure 30.07 in
Visibility 1.0 miles
Clouds Mostly Cloudy 900 ft
Overcast 1600 ft
Windchill 27 °F
Dew Point 21 °F
Humidity 62%
Rainfall 0.54 in
Snow Depth Not available.
UV 0 out of 12
Pollen .50 out of 12
Air Quality Not available.
Flu Activity Not available.
METAR KZZV 050053Z AUTO 35006KT 1SM -SN BR BKN009 OVC016 M01/M03 A3004 RMK AO2 SLP182 P0002 T10111028 TSNO

More Conditions Fewer Conditions

10-Day Weather Forecast

Almanac

Astronomy

Mar. 04, 2015 Rise Set
Actual Time
Civil Twilight
Nautical Twilight
Astronomical Twilight
Moon
Length of Visible Light
Length of Day
Tomorrow will be .
, % of the Moon is Illuminated

Today's Extremes

State Highs State Lows

Community

WunderPhotos

Upload Photos

1,802,615 photos uploaded!

WunderBlogs® & News

Nearby

Air Quality

  Air Quality AQ Index Pollutant
Not available.

Snow Depth

Station Depth Elevation

Earthquake Activity

City Distance Mag. Time & Date
Minimum magnitude displayed is 2.5.

Coastal Water Temperatures

Place Temperature

Nearby Weather Stations

Winter Weather Advisory
Statement as of 2:17 PM EST on March 04, 2015

... Winter Weather Advisory remains in effect until 4 PM EST
Thursday...

* snow accumulations... 2 to 5 inches.

* Snow beginning... late this afternoon... mixed with sleet at the start.

* Period of most intense snow... tonight into Thursday morning.

* Snow ending... Thursday afternoon.

* Impacts... hazardous travel conditions are expected due to snow
accumulation.

* Winds... northwest 5 to 10 mph.

Precautionary/preparedness actions...

A Winter Weather Advisory for snow means that snowfall will cause
travel difficulties. Be prepared for snow covered roads and
limited visibility. Report snow accumulation to the National
Weather Service by calling 412-262-1988... posting to the NWS
Pittsburgh facebook Page... or using twitter @nwspittsburgh.